sensor_id;sensor_type;location;lat;lon;timestamp;pressure;altitude;pressure_sealevel;temperature;humidity
42125;BME280;27787;44.594;11.046;2023-02-04T00:01:52;101517.91;;;6.41;79.86
42125;BME280;27787;44.594;11.046;2023-02-04T00:04:36;101526.59;;;6.40;80.02
42125;BME280;27787;44.594;11.046;2023-02-04T00:07:21;101515.16;;;6.38;80.22
42125;BME280;27787;44.594;11.046;2023-02-04T00:10:06;101528.34;;;6.39;80.07
42125;BME280;27787;44.594;11.046;2023-02-04T00:12:50;101524.75;;;6.37;79.89
42125;BME280;27787;44.594;11.046;2023-02-04T00:15:34;101519.59;;;6.39;80.36
42125;BME280;27787;44.594;11.046;2023-02-04T00:18:18;101523.25;;;6.44;80.63
42125;BME280;27787;44.594;11.046;2023-02-04T00:21:02;101511.97;;;6.46;80.25
42125;BME280;27787;44.594;11.046;2023-02-04T00:23:47;101525.72;;;6.39;79.87
42125;BME280;27787;44.594;11.046;2023-02-04T00:26:33;101508.19;;;6.38;80.20
42125;BME280;27787;44.594;11.046;2023-02-04T00:29:17;101500.53;;;6.44;81.39
42125;BME280;27787;44.594;11.046;2023-02-04T00:32:02;101498.41;;;6.58;81.71
42125;BME280;27787;44.594;11.046;2023-02-04T00:34:46;101483.19;;;6.73;82.19
42125;BME280;27787;44.594;11.046;2023-02-04T00:37:31;101474.81;;;6.84;81.44
42125;BME280;27787;44.594;11.046;2023-02-04T00:40:15;101471.47;;;6.89;81.02
42125;BME280;27787;44.594;11.046;2023-02-04T00:42:59;101464.44;;;6.88;80.28
42125;BME280;27787;44.594;11.046;2023-02-04T00:45:43;101460.00;;;6.86;80.54
42125;BME280;27787;44.594;11.046;2023-02-04T00:48:28;101474.91;;;6.87;79.74
42125;BME280;27787;44.594;11.046;2023-02-04T00:51:13;101474.25;;;6.67;78.09
42125;BME280;27787;44.594;11.046;2023-02-04T00:53:57;101464.44;;;6.63;79.57
42125;BME280;27787;44.594;11.046;2023-02-04T00:56:42;101475.50;;;6.53;78.26
42125;BME280;27787;44.594;11.046;2023-02-04T00:59:27;101463.31;;;6.55;78.64
42125;BME280;27787;44.594;11.046;2023-02-04T01:02:11;101460.66;;;6.53;77.50
42125;BME280;27787;44.594;11.046;2023-02-04T01:04:56;101453.28;;;6.43;77.36
42125;BME280;27787;44.594;11.046;2023-02-04T01:07:40;101458.38;;;6.38;76.68
42125;BME280;27787;44.594;11.046;2023-02-04T01:10:25;101467.59;;;6.27;76.55
42125;BME280;27787;44.594;11.046;2023-02-04T01:13:09;101451.72;;;6.24;76.66
42125;BME280;27787;44.594;11.046;2023-02-04T01:15:53;101450.91;;;6.25;76.33
42125;BME280;27787;44.594;11.046;2023-02-04T01:18:39;101462.34;;;6.27;76.15
42125;BME280;27787;44.594;11.046;2023-02-04T01:21:24;101444.03;;;6.29;75.84
42125;BME280;27787;44.594;11.046;2023-02-04T01:24:08;101452.75;;;6.28;75.38
42125;BME280;27787;44.594;11.046;2023-02-04T01:27:12;101453.53;;;6.25;75.42
42125;BME280;27787;44.594;11.046;2023-02-04T01:29:56;101446.56;;;6.26;75.79
42125;BME280;27787;44.594;11.046;2023-02-04T01:32:41;101464.84;;;6.24;75.77
42125;BME280;27787;44.594;11.046;2023-02-04T01:35:25;101445.53;;;6.22;75.78
42125;BME280;27787;44.594;11.046;2023-02-04T01:38:09;101447.28;;;6.21;76.09
42125;BME280;27787;44.594;11.046;2023-02-04T01:40:54;101442.47;;;6.10;75.62
42125;BME280;27787;44.594;11.046;2023-02-04T01:43:39;101455.97;;;5.97;76.40
42125;BME280;27787;44.594;11.046;2023-02-04T01:46:23;101445.88;;;5.85;76.92
42125;BME280;27787;44.594;11.046;2023-02-04T01:49:09;101453.22;;;5.71;77.61
42125;BME280;27787;44.594;11.046;2023-02-04T01:51:54;101444.09;;;5.60;77.88
42125;BME280;27787;44.594;11.046;2023-02-04T01:54:38;101450.63;;;5.49;78.87
42125;BME280;27787;44.594;11.046;2023-02-04T01:57:22;101442.38;;;5.38;79.10
42125;BME280;27787;44.594;11.046;2023-02-04T02:00:27;101447.66;;;5.40;79.49
42125;BME280;27787;44.594;11.046;2023-02-04T02:03:12;101450.22;;;5.38;79.53
42125;BME280;27787;44.594;11.046;2023-02-04T02:05:56;101444.03;;;5.36;79.23
42125;BME280;27787;44.594;11.046;2023-02-04T02:08:43;101443.81;;;5.31;79.08
42125;BME280;27787;44.594;11.046;2023-02-04T02:11:27;101428.97;;;5.30;78.75
42125;BME280;27787;44.594;11.046;2023-02-04T02:14:12;101445.56;;;5.31;78.06
42125;BME280;27787;44.594;11.046;2023-02-04T02:16:56;101441.22;;;5.31;77.81
42125;BME280;27787;44.594;11.046;2023-02-04T02:19:41;101431.00;;;5.38;77.73
42125;BME280;27787;44.594;11.046;2023-02-04T02:22:34;101413.72;;;5.43;77.45
42125;BME280;27787;44.594;11.046;2023-02-04T02:25:19;101427.91;;;5.48;77.68
42125;BME280;27787;44.594;11.046;2023-02-04T02:28:09;101413.09;;;5.48;77.22
42125;BME280;27787;44.594;11.046;2023-02-04T02:30:54;101427.06;;;5.49;77.15
42125;BME280;27787;44.594;11.046;2023-02-04T02:33:38;101442.72;;;5.47;77.22
42125;BME280;27787;44.594;11.046;2023-02-04T02:36:22;101435.44;;;5.40;77.49
42125;BME280;27787;44.594;11.046;2023-02-04T02:39:08;101442.47;;;5.41;77.62
42125;BME280;27787;44.594;11.046;2023-02-04T02:41:54;101425.88;;;5.41;77.71
42125;BME280;27787;44.594;11.046;2023-02-04T02:44:39;101422.47;;;5.43;78.33
42125;BME280;27787;44.594;11.046;2023-02-04T02:47:23;101422.72;;;5.49;78.21
42125;BME280;27787;44.594;11.046;2023-02-04T02:50:14;101413.16;;;5.50;77.19
42125;BME280;27787;44.594;11.046;2023-02-04T02:53:00;101414.69;;;5.45;77.52
42125;BME280;27787;44.594;11.046;2023-02-04T02:55:44;101411.94;;;5.42;77.45
42125;BME280;27787;44.594;11.046;2023-02-04T02:58:33;101419.84;;;5.43;77.72
42125;BME280;27787;44.594;11.046;2023-02-04T03:01:19;101425.22;;;5.46;77.63
42125;BME280;27787;44.594;11.046;2023-02-04T03:04:03;101399.09;;;5.48;77.75
42125;BME280;27787;44.594;11.046;2023-02-04T03:06:48;101391.47;;;5.54;77.58
42125;BME280;27787;44.594;11.046;2023-02-04T03:09:33;101390.88;;;5.61;77.40
42125;BME280;27787;44.594;11.046;2023-02-04T03:12:18;101400.47;;;5.60;76.02
42125;BME280;27787;44.594;11.046;2023-02-04T03:15:03;101410.16;;;5.41;76.36
42125;BME280;27787;44.594;11.046;2023-02-04T03:17:48;101423.78;;;5.32;77.12
42125;BME280;27787;44.594;11.046;2023-02-04T03:20:35;101415.66;;;5.24;77.73
42125;BME280;27787;44.594;11.046;2023-02-04T03:23:20;101423.13;;;5.15;78.27
42125;BME280;27787;44.594;11.046;2023-02-04T03:26:05;101414.22;;;5.10;78.35
42125;BME280;27787;44.594;11.046;2023-02-04T03:28:49;101412.28;;;5.06;78.54
42125;BME280;27787;44.594;11.046;2023-02-04T03:31:34;101430.53;;;5.04;78.81
42125;BME280;27787;44.594;11.046;2023-02-04T03:34:18;101421.03;;;5.07;79.03
42125;BME280;27787;44.594;11.046;2023-02-04T03:37:03;101420.97;;;5.05;78.62
42125;BME280;27787;44.594;11.046;2023-02-04T03:39:47;101417.41;;;5.03;78.72
42125;BME280;27787;44.594;11.046;2023-02-04T03:42:31;101416.56;;;5.04;78.68
42125;BME280;27787;44.594;11.046;2023-02-04T03:45:16;101411.78;;;5.15;78.50
42125;BME280;27787;44.594;11.046;2023-02-04T03:48:00;101411.03;;;5.19;77.50
42125;BME280;27787;44.594;11.046;2023-02-04T03:50:45;101416.16;;;5.16;77.57
42125;BME280;27787;44.594;11.046;2023-02-04T03:53:29;101402.72;;;5.29;77.73
42125;BME280;27787;44.594;11.046;2023-02-04T03:56:13;101395.59;;;5.47;77.44
42125;BME280;27787;44.594;11.046;2023-02-04T03:58:57;101413.56;;;5.60;76.89
42125;BME280;27787;44.594;11.046;2023-02-04T04:01:41;101397.22;;;5.68;76.04
42125;BME280;27787;44.594;11.046;2023-02-04T04:04:25;101408.66;;;5.70;76.30
42125;BME280;27787;44.594;11.046;2023-02-04T04:07:09;101399.63;;;5.61;75.71
42125;BME280;27787;44.594;11.046;2023-02-04T04:09:53;101409.97;;;5.58;76.73
42125;BME280;27787;44.594;11.046;2023-02-04T04:12:38;101386.47;;;5.60;76.37
42125;BME280;27787;44.594;11.046;2023-02-04T04:15:22;101392.03;;;5.69;76.67
42125;BME280;27787;44.594;11.046;2023-02-04T04:18:07;101391.25;;;5.72;76.40
42125;BME280;27787;44.594;11.046;2023-02-04T04:20:51;101368.38;;;5.66;76.26
42125;BME280;27787;44.594;11.046;2023-02-04T04:23:35;101371.03;;;5.68;77.17
42125;BME280;27787;44.594;11.046;2023-02-04T04:26:19;101374.84;;;5.76;76.69
42125;BME280;27787;44.594;11.046;2023-02-04T04:29:04;101378.59;;;5.84;76.63
42125;BME280;27787;44.594;11.046;2023-02-04T04:31:48;101382.00;;;5.81;75.81
42125;BME280;27787;44.594;11.046;2023-02-04T04:34:32;101370.53;;;5.78;75.65
42125;BME280;27787;44.594;11.046;2023-02-04T04:37:17;101376.63;;;5.77;76.40
42125;BME280;27787;44.594;11.046;2023-02-04T04:40:01;101373.91;;;5.74;75.70
42125;BME280;27787;44.594;11.046;2023-02-04T04:42:45;101378.72;;;5.63;76.11
42125;BME280;27787;44.594;11.046;2023-02-04T04:45:30;101394.03;;;5.52;76.54
42125;BME280;27787;44.594;11.046;2023-02-04T04:48:14;101374.41;;;5.41;76.42
42125;BME280;27787;44.594;11.046;2023-02-04T04:50:58;101369.59;;;5.29;77.65
42125;BME280;27787;44.594;11.046;2023-02-04T04:53:42;101378.94;;;5.23;78.75
42125;BME280;27787;44.594;11.046;2023-02-04T04:56:27;101364.00;;;5.20;78.93
42125;BME280;27787;44.594;11.046;2023-02-04T04:59:11;101353.53;;;5.20;78.81
42125;BME280;27787;44.594;11.046;2023-02-04T05:01:55;101362.16;;;5.18;78.84
42125;BME280;27787;44.594;11.046;2023-02-04T05:04:40;101364.19;;;5.25;79.25
42125;BME280;27787;44.594;11.046;2023-02-04T05:07:24;101351.69;;;5.40;78.92
42125;BME280;27787;44.594;11.046;2023-02-04T05:10:08;101357.38;;;5.52;78.23
42125;BME280;27787;44.594;11.046;2023-02-04T05:12:52;101367.22;;;5.59;77.73
42125;BME280;27787;44.594;11.046;2023-02-04T05:15:36;101369.25;;;5.67;77.53
42125;BME280;27787;44.594;11.046;2023-02-04T05:18:21;101370.31;;;5.72;77.11
42125;BME280;27787;44.594;11.046;2023-02-04T05:21:05;101370.31;;;5.72;77.04
42125;BME280;27787;44.594;11.046;2023-02-04T05:23:49;101363.22;;;5.69;77.03
42125;BME280;27787;44.594;11.046;2023-02-04T05:26:33;101364.16;;;5.71;76.57
42125;BME280;27787;44.594;11.046;2023-02-04T05:29:18;101363.22;;;5.69;76.43
42125;BME280;27787;44.594;11.046;2023-02-04T05:32:02;101357.09;;;5.69;76.30
42125;BME280;27787;44.594;11.046;2023-02-04T05:34:46;101346.63;;;5.69;76.24
42125;BME280;27787;44.594;11.046;2023-02-04T05:37:30;101353.66;;;5.70;76.14
42125;BME280;27787;44.594;11.046;2023-02-04T05:40:15;101366.56;;;5.65;76.37
42125;BME280;27787;44.594;11.046;2023-02-04T05:42:59;101383.47;;;5.49;76.44
42125;BME280;27787;44.594;11.046;2023-02-04T05:45:43;101373.03;;;5.28;77.44
42125;BME280;27787;44.594;11.046;2023-02-04T05:48:28;101389.78;;;5.10;78.28
42125;BME280;27787;44.594;11.046;2023-02-04T05:51:12;101389.41;;;5.00;78.92
42125;BME280;27787;44.594;11.046;2023-02-04T05:53:56;101385.72;;;4.95;78.72
42125;BME280;27787;44.594;11.046;2023-02-04T05:56:40;101374.88;;;4.86;79.29
42125;BME280;27787;44.594;11.046;2023-02-04T05:59:24;101376.94;;;4.72;79.74
42125;BME280;27787;44.594;11.046;2023-02-04T06:02:08;101381.00;;;4.66;80.06
42125;BME280;27787;44.594;11.046;2023-02-04T06:04:53;101375.78;;;4.66;80.61
42125;BME280;27787;44.594;11.046;2023-02-04T06:07:37;101381.56;;;4.80;80.55
42125;BME280;27787;44.594;11.046;2023-02-04T06:10:21;101376.59;;;4.86;80.02
42125;BME280;27787;44.594;11.046;2023-02-04T06:13:05;101383.56;;;4.85;79.43
42125;BME280;27787;44.594;11.046;2023-02-04T06:15:50;101384.69;;;4.92;79.49
42125;BME280;27787;44.594;11.046;2023-02-04T06:18:34;101377.09;;;4.98;78.85
42125;BME280;27787;44.594;11.046;2023-02-04T06:21:18;101395.69;;;5.06;78.59
42125;BME280;27787;44.594;11.046;2023-02-04T06:24:02;101400.19;;;5.08;77.83
42125;BME280;27787;44.594;11.046;2023-02-04T06:26:47;101411.16;;;4.99;77.89
42125;BME280;27787;44.594;11.046;2023-02-04T06:29:31;101396.75;;;4.88;78.66
42125;BME280;27787;44.594;11.046;2023-02-04T06:32:16;101395.09;;;4.90;79.05
42125;BME280;27787;44.594;11.046;2023-02-04T06:35:00;101394.63;;;5.00;78.65
42125;BME280;27787;44.594;11.046;2023-02-04T06:37:44;101407.81;;;5.03;77.45
42125;BME280;27787;44.594;11.046;2023-02-04T06:40:28;101416.13;;;4.93;77.45
42125;BME280;27787;44.594;11.046;2023-02-04T06:43:12;101403.53;;;4.83;78.60
42125;BME280;27787;44.594;11.046;2023-02-04T06:45:57;101420.19;;;4.85;78.24
42125;BME280;27787;44.594;11.046;2023-02-04T06:48:41;101435.03;;;4.86;78.32
42125;BME280;27787;44.594;11.046;2023-02-04T06:51:26;101427.97;;;4.84;78.24
42125;BME280;27787;44.594;11.046;2023-02-04T06:54:10;101413.28;;;4.87;78.20
42125;BME280;27787;44.594;11.046;2023-02-04T06:56:54;101416.78;;;4.88;78.94
42125;BME280;27787;44.594;11.046;2023-02-04T06:59:39;101408.03;;;4.87;78.64
42125;BME280;27787;44.594;11.046;2023-02-04T07:02:24;101406.31;;;4.88;78.87
42125;BME280;27787;44.594;11.046;2023-02-04T07:05:09;101403.81;;;4.91;78.81
42125;BME280;27787;44.594;11.046;2023-02-04T07:07:53;101412.22;;;5.04;78.12
42125;BME280;27787;44.594;11.046;2023-02-04T07:10:38;101418.00;;;5.18;77.35
42125;BME280;27787;44.594;11.046;2023-02-04T07:13:22;101417.53;;;5.28;77.07
42125;BME280;27787;44.594;11.046;2023-02-04T07:16:07;101416.97;;;5.36;76.17
42125;BME280;27787;44.594;11.046;2023-02-04T07:18:51;101417.53;;;5.28;76.52
42125;BME280;27787;44.594;11.046;2023-02-04T07:21:35;101412.03;;;5.21;76.72
42125;BME280;27787;44.594;11.046;2023-02-04T07:24:20;101424.28;;;5.22;76.97
42125;BME280;27787;44.594;11.046;2023-02-04T07:27:04;101432.81;;;5.18;76.79
42125;BME280;27787;44.594;11.046;2023-02-04T07:29:49;101432.59;;;5.12;77.62
42125;BME280;27787;44.594;11.046;2023-02-04T07:32:33;101442.06;;;5.08;77.72
42125;BME280;27787;44.594;11.046;2023-02-04T07:35:21;101442.28;;;5.14;78.23
42125;BME280;27787;44.594;11.046;2023-02-04T07:38:06;101447.00;;;5.23;77.58
42125;BME280;27787;44.594;11.046;2023-02-04T07:40:51;101467.28;;;5.28;77.78
42125;BME280;27787;44.594;11.046;2023-02-04T07:43:36;101472.06;;;5.39;77.23
42125;BME280;27787;44.594;11.046;2023-02-04T07:46:20;101474.16;;;5.47;77.41
42125;BME280;27787;44.594;11.046;2023-02-04T07:49:04;101469.25;;;5.56;76.77
42125;BME280;27787;44.594;11.046;2023-02-04T07:51:48;101486.75;;;5.57;76.86
42125;BME280;27787;44.594;11.046;2023-02-04T07:54:32;101495.91;;;5.69;76.54
42125;BME280;27787;44.594;11.046;2023-02-04T07:57:18;101513.84;;;5.80;76.37
42125;BME280;27787;44.594;11.046;2023-02-04T08:00:04;101509.09;;;5.93;76.13
42125;BME280;27787;44.594;11.046;2023-02-04T08:02:56;101507.84;;;6.05;75.51
42125;BME280;27787;44.594;11.046;2023-02-04T08:05:40;101502.16;;;6.17;75.25
42125;BME280;27787;44.594;11.046;2023-02-04T08:08:24;101502.66;;;6.31;74.81
42125;BME280;27787;44.594;11.046;2023-02-04T08:11:08;101494.47;;;6.45;74.49
42125;BME280;27787;44.594;11.046;2023-02-04T08:13:53;101500.00;;;6.53;74.53
42125;BME280;27787;44.594;11.046;2023-02-04T08:16:37;101496.78;;;6.62;74.12
42125;BME280;27787;44.594;11.046;2023-02-04T08:19:21;101490.03;;;6.68;73.95
42125;BME280;27787;44.594;11.046;2023-02-04T08:22:05;101492.78;;;6.73;73.89
42125;BME280;27787;44.594;11.046;2023-02-04T08:24:50;101485.81;;;6.73;74.25
42125;BME280;27787;44.594;11.046;2023-02-04T08:27:34;101474.72;;;6.80;74.35
42125;BME280;27787;44.594;11.046;2023-02-04T08:30:19;101496.81;;;6.89;74.53
42125;BME280;27787;44.594;11.046;2023-02-04T08:33:03;101495.56;;;7.03;74.42
42125;BME280;27787;44.594;11.046;2023-02-04T08:35:47;101504.66;;;7.13;74.48
42125;BME280;27787;44.594;11.046;2023-02-04T08:38:32;101514.75;;;7.27;75.13
42125;BME280;27787;44.594;11.046;2023-02-04T08:41:16;101528.28;;;7.39;75.15
42125;BME280;27787;44.594;11.046;2023-02-04T08:44:00;101520.81;;;7.52;74.99
42125;BME280;27787;44.594;11.046;2023-02-04T08:46:44;101513.19;;;7.59;75.36
42125;BME280;27787;44.594;11.046;2023-02-04T08:49:28;101520.34;;;7.65;75.62
42125;BME280;27787;44.594;11.046;2023-02-04T08:52:12;101537.22;;;7.72;75.86
42125;BME280;27787;44.594;11.046;2023-02-04T08:54:57;101543.56;;;7.80;76.21
42125;BME280;27787;44.594;11.046;2023-02-04T08:57:41;101544.59;;;7.83;76.28
42125;BME280;27787;44.594;11.046;2023-02-04T09:00:25;101550.81;;;7.87;76.79
42125;BME280;27787;44.594;11.046;2023-02-04T09:03:09;101530.63;;;7.86;77.00
42125;BME280;27787;44.594;11.046;2023-02-04T09:05:54;101540.34;;;7.88;77.83
42125;BME280;27787;44.594;11.046;2023-02-04T09:08:38;101537.81;;;7.91;78.66
42125;BME280;27787;44.594;11.046;2023-02-04T09:11:23;101530.13;;;7.97;78.68
42125;BME280;27787;44.594;11.046;2023-02-04T09:14:07;101525.00;;;8.02;79.01
42125;BME280;27787;44.594;11.046;2023-02-04T09:16:51;101509.41;;;8.08;79.07
42125;BME280;27787;44.594;11.046;2023-02-04T09:19:35;101515.94;;;8.21;80.18
42125;BME280;27787;44.594;11.046;2023-02-04T09:22:20;101519.03;;;8.36;80.94
42125;BME280;27787;44.594;11.046;2023-02-04T09:25:04;101512.56;;;8.56;82.01
42125;BME280;27787;44.594;11.046;2023-02-04T09:27:48;101522.72;;;8.74;82.46
42125;BME280;27787;44.594;11.046;2023-02-04T09:30:32;101503.81;;;8.89;82.40
42125;BME280;27787;44.594;11.046;2023-02-04T09:33:16;101513.78;;;9.02;82.51
42125;BME280;27787;44.594;11.046;2023-02-04T09:36:01;101511.47;;;9.14;83.56
42125;BME280;27787;44.594;11.046;2023-02-04T09:38:45;101512.63;;;9.26;84.25
42125;BME280;27787;44.594;11.046;2023-02-04T09:41:31;101511.06;;;9.34;83.28
42125;BME280;27787;44.594;11.046;2023-02-04T09:44:16;101514.72;;;9.39;82.07
42125;BME280;27787;44.594;11.046;2023-02-04T09:47:02;101528.84;;;9.42;81.37
42125;BME280;27787;44.594;11.046;2023-02-04T09:49:48;101534.22;;;9.47;81.16
42125;BME280;27787;44.594;11.046;2023-02-04T09:52:33;101549.34;;;9.54;81.13
42125;BME280;27787;44.594;11.046;2023-02-04T09:55:19;101545.97;;;9.61;80.71
42125;BME280;27787;44.594;11.046;2023-02-04T09:58:14;101547.06;;;9.69;81.34
42125;BME280;27787;44.594;11.046;2023-02-04T10:01:08;101561.41;;;9.81;82.49
42125;BME280;27787;44.594;11.046;2023-02-04T10:03:59;101543.91;;;9.86;83.12
42125;BME280;27787;44.594;11.046;2023-02-04T10:06:43;101534.25;;;9.86;82.80
42125;BME280;27787;44.594;11.046;2023-02-04T10:09:28;101530.78;;;9.89;83.00
42125;BME280;27787;44.594;11.046;2023-02-04T10:12:13;101530.84;;;9.90;83.27
42125;BME280;27787;44.594;11.046;2023-02-04T10:14:57;101528.22;;;9.90;83.42
42125;BME280;27787;44.594;11.046;2023-02-04T10:17:45;101527.34;;;9.90;83.50
42125;BME280;27787;44.594;11.046;2023-02-04T10:20:29;101523.84;;;9.91;83.54
42125;BME280;27787;44.594;11.046;2023-02-04T10:23:13;101538.69;;;9.87;83.51
42125;BME280;27787;44.594;11.046;2023-02-04T10:25:58;101543.03;;;9.85;83.61
42125;BME280;27787;44.594;11.046;2023-02-04T10:28:42;101530.78;;;9.89;84.02
42125;BME280;27787;44.594;11.046;2023-02-04T10:31:34;101540.53;;;9.90;84.20
42125;BME280;27787;44.594;11.046;2023-02-04T10:34:31;101527.41;;;9.93;84.48
42125;BME280;27787;44.594;11.046;2023-02-04T10:37:19;101518.66;;;9.95;84.02
42125;BME280;27787;44.594;11.046;2023-02-04T10:40:04;101517.78;;;9.96;83.83
42125;BME280;27787;44.594;11.046;2023-02-04T10:42:48;101516.97;;;9.99;83.97
42125;BME280;27787;44.594;11.046;2023-02-04T10:45:34;101531.19;;;10.05;84.05
42125;BME280;27787;44.594;11.046;2023-02-04T10:48:19;101530.38;;;10.10;84.10
42125;BME280;27787;44.594;11.046;2023-02-04T10:51:03;101520.00;;;10.16;83.89
42125;BME280;27787;44.594;11.046;2023-02-04T10:53:48;101517.53;;;10.23;83.95
42125;BME280;27787;44.594;11.046;2023-02-04T10:56:50;101521.19;;;10.30;83.63
42125;BME280;27787;44.594;11.046;2023-02-04T10:59:36;101517.84;;;10.39;83.80
42125;BME280;27787;44.594;11.046;2023-02-04T11:02:43;101505.66;;;10.45;83.67
42125;BME280;27787;44.594;11.046;2023-02-04T11:05:32;101506.66;;;10.52;83.35
42125;BME280;27787;44.594;11.046;2023-02-04T11:11:19;101502.47;;;10.63;81.94
42125;BME280;27787;44.594;11.046;2023-02-04T11:14:04;101492.84;;;10.67;81.11
42125;BME280;27787;44.594;11.046;2023-02-04T11:16:48;101494.75;;;10.72;80.60
42125;BME280;27787;44.594;11.046;2023-02-04T11:19:37;101497.47;;;10.78;78.95
42125;BME280;27787;44.594;11.046;2023-02-04T11:22:35;101499.34;;;10.82;77.92
42125;BME280;27787;44.594;11.046;2023-02-04T11:25:34;101509.09;;;10.88;77.54
42125;BME280;27787;44.594;11.046;2023-02-04T11:28:24;101502.22;;;10.96;76.68
42125;BME280;27787;44.594;11.046;2023-02-04T11:39:50;101480.66;;;11.23;72.85
42125;BME280;27787;44.594;11.046;2023-02-04T11:42:41;101480.75;;;11.31;71.85
42125;BME280;27787;44.594;11.046;2023-02-04T11:45:33;101480.97;;;11.44;71.57
42125;BME280;27787;44.594;11.046;2023-02-04T11:48:21;101469.69;;;11.55;70.50
42125;BME280;27787;44.594;11.046;2023-02-04T11:51:15;101470.66;;;11.61;69.62
42125;BME280;27787;44.594;11.046;2023-02-04T11:54:00;101470.78;;;11.70;68.99
42125;BME280;27787;44.594;11.046;2023-02-04T11:56:45;101478.88;;;11.79;67.82
42125;BME280;27787;44.594;11.046;2023-02-04T11:59:30;101470.25;;;11.93;66.83
42125;BME280;27787;44.594;11.046;2023-02-04T12:02:19;101465.13;;;12.06;66.42
42125;BME280;27787;44.594;11.046;2023-02-04T12:05:12;101466.16;;;12.18;65.21
42125;BME280;27787;44.594;11.046;2023-02-04T12:11:24;101462.91;;;12.40;65.94
42125;BME280;27787;44.594;11.046;2023-02-04T12:14:16;101466.50;;;12.48;65.35
42125;BME280;27787;44.594;11.046;2023-02-04T12:17:16;101459.53;;;12.55;65.49
42125;BME280;27787;44.594;11.046;2023-02-04T12:20:00;101456.03;;;12.62;64.26
42125;BME280;27787;44.594;11.046;2023-02-04T12:22:44;101445.63;;;12.77;61.63
42125;BME280;27787;44.594;11.046;2023-02-04T12:25:29;101450.16;;;12.92;59.47
42125;BME280;27787;44.594;11.046;2023-02-04T12:28:13;101454.72;;;13.11;57.99
42125;BME280;27787;44.594;11.046;2023-02-04T12:30:57;101450.44;;;13.19;59.26
42125;BME280;27787;44.594;11.046;2023-02-04T12:33:41;101462.81;;;13.23;58.43
42125;BME280;27787;44.594;11.046;2023-02-04T12:36:26;101448.66;;;13.18;58.72
42125;BME280;27787;44.594;11.046;2023-02-04T12:39:12;101451.41;;;13.32;59.62
42125;BME280;27787;44.594;11.046;2023-02-04T12:41:56;101448.78;;;13.37;60.29
42125;BME280;27787;44.594;11.046;2023-02-04T12:44:40;101448.88;;;13.50;55.96
42125;BME280;27787;44.594;11.046;2023-02-04T12:47:25;101453.34;;;13.61;55.72
42125;BME280;27787;44.594;11.046;2023-02-04T12:50:13;101462.19;;;13.61;55.24
42125;BME280;27787;44.594;11.046;2023-02-04T12:53:05;101455.22;;;13.80;54.63
42125;BME280;27787;44.594;11.046;2023-02-04T12:55:49;101450.84;;;13.80;54.10
42125;BME280;27787;44.594;11.046;2023-02-04T12:58:33;101445.53;;;13.85;54.13
42125;BME280;27787;44.594;11.046;2023-02-04T13:01:17;101440.25;;;13.93;54.81
42125;BME280;27787;44.594;11.046;2023-02-04T13:04:02;101446.50;;;14.04;54.32
42125;BME280;27787;44.594;11.046;2023-02-04T13:06:46;101432.38;;;14.08;54.08
42125;BME280;27787;44.594;11.046;2023-02-04T13:09:30;101437.69;;;14.09;53.97
42125;BME280;27787;44.594;11.046;2023-02-04T13:12:14;101433.31;;;14.22;53.13
42125;BME280;27787;44.594;11.046;2023-02-04T13:14:59;101432.41;;;14.20;53.38
42125;BME280;27787;44.594;11.046;2023-02-04T13:17:43;101438.56;;;14.19;52.71
42125;BME280;27787;44.594;11.046;2023-02-04T13:20:27;101433.34;;;14.34;52.49
42125;BME280;27787;44.594;11.046;2023-02-04T13:23:11;101448.34;;;14.28;53.23
42125;BME280;27787;44.594;11.046;2023-02-04T13:25:55;101438.66;;;14.33;55.27
42125;BME280;27787;44.594;11.046;2023-02-04T13:28:40;101448.34;;;14.23;53.21
42125;BME280;27787;44.594;11.046;2023-02-04T13:31:24;101449.25;;;14.27;53.10
42125;BME280;27787;44.594;11.046;2023-02-04T13:34:08;101443.94;;;14.30;52.97
42125;BME280;27787;44.594;11.046;2023-02-04T13:36:53;101444.84;;;14.33;51.86
42125;BME280;27787;44.594;11.046;2023-02-04T13:39:37;101446.63;;;14.43;50.04
42125;BME280;27787;44.594;11.046;2023-02-04T13:42:21;101459.97;;;14.57;48.41
42125;BME280;27787;44.594;11.046;2023-02-04T13:45:06;101454.69;;;14.63;48.88
42125;BME280;27787;44.594;11.046;2023-02-04T13:47:53;101453.78;;;14.61;48.55
42125;BME280;27787;44.594;11.046;2023-02-04T13:50:37;101467.97;;;14.62;47.60
42125;BME280;27787;44.594;11.046;2023-02-04T13:53:21;101475.03;;;14.58;47.57
42125;BME280;27787;44.594;11.046;2023-02-04T13:56:06;101475.94;;;14.62;48.40
42125;BME280;27787;44.594;11.046;2023-02-04T13:58:50;101480.41;;;14.72;48.93
42125;BME280;27787;44.594;11.046;2023-02-04T14:01:34;101479.50;;;14.76;47.42
42125;BME280;27787;44.594;11.046;2023-02-04T14:04:19;101491.91;;;14.83;47.20
42125;BME280;27787;44.594;11.046;2023-02-04T14:07:03;101487.50;;;14.87;47.32
42125;BME280;27787;44.594;11.046;2023-02-04T14:09:47;101474.19;;;14.78;47.93
42125;BME280;27787;44.594;11.046;2023-02-04T14:12:32;101482.16;;;14.74;48.50
42125;BME280;27787;44.594;11.046;2023-02-04T14:15:16;101485.72;;;14.78;49.12
42125;BME280;27787;44.594;11.046;2023-02-04T14:18:00;101493.69;;;14.81;49.13
42125;BME280;27787;44.594;11.046;2023-02-04T14:20:44;101493.72;;;14.86;49.36
42125;BME280;27787;44.594;11.046;2023-02-04T14:23:28;101500.78;;;14.90;49.03
42125;BME280;27787;44.594;11.046;2023-02-04T14:26:13;101499.00;;;14.81;49.40
42125;BME280;27787;44.594;11.046;2023-02-04T14:28:57;101505.19;;;14.83;50.19
42125;BME280;27787;44.594;11.046;2023-02-04T14:31:41;101514.94;;;14.81;49.94
42125;BME280;27787;44.594;11.046;2023-02-04T14:34:28;101522.03;;;14.82;49.18
42125;BME280;27787;44.594;11.046;2023-02-04T14:37:12;101522.06;;;14.90;48.70